sensor_id;sensor_type;location;lat;lon;timestamp;temperature;humidity
20654;DHT22;21083;50.898;4.902;2023-11-21T00:01:06;9.80;99.90
20654;DHT22;21083;50.898;4.902;2023-11-21T00:03:35;9.90;99.90
20654;DHT22;21083;50.898;4.902;2023-11-21T00:06:03;9.90;99.90
20654;DHT22;21083;50.898;4.902;2023-11-21T00:08:30;9.90;99.90
20654;DHT22;21083;50.898;4.902;2023-11-21T00:10:57;9.80;99.90
20654;DHT22;21083;50.898;4.902;2023-11-21T00:13:26;9.80;99.90
20654;DHT22;21083;50.898;4.902;2023-11-21T00:15:53;9.70;99.90
20654;DHT22;21083;50.898;4.902;2023-11-21T00:18:20;9.90;99.90
20654;DHT22;21083;50.898;4.902;2023-11-21T00:20:49;10.00;99.90
20654;DHT22;21083;50.898;4.902;2023-11-21T00:23:16;10.00;99.90
20654;DHT22;21083;50.898;4.902;2023-11-21T00:25:43;9.90;99.90
20654;DHT22;21083;50.898;4.902;2023-11-21T00:28:10;10.00;99.90
20654;DHT22;21083;50.898;4.902;2023-11-21T00:30:37;9.90;99.90
20654;DHT22;21083;50.898;4.902;2023-11-21T00:33:03;10.10;99.90
20654;DHT22;21083;50.898;4.902;2023-11-21T00:35:30;10.00;99.90
20654;DHT22;21083;50.898;4.902;2023-11-21T00:37:59;10.00;99.90
20654;DHT22;21083;50.898;4.902;2023-11-21T00:40:25;10.00;99.90
20654;DHT22;21083;50.898;4.902;2023-11-21T00:42:52;10.00;99.90
20654;DHT22;21083;50.898;4.902;2023-11-21T00:45:19;9.80;99.90
20654;DHT22;21083;50.898;4.902;2023-11-21T00:47:46;9.80;99.90
20654;DHT22;21083;50.898;4.902;2023-11-21T00:50:13;9.90;99.90
20654;DHT22;21083;50.898;4.902;2023-11-21T00:52:41;9.80;99.90
20654;DHT22;21083;50.898;4.902;2023-11-21T00:55:09;9.70;99.90
20654;DHT22;21083;50.898;4.902;2023-11-21T00:57:37;9.80;99.90
20654;DHT22;21083;50.898;4.902;2023-11-21T01:00:05;9.80;99.90
20654;DHT22;21083;50.898;4.902;2023-11-21T01:02:35;9.80;99.90
20654;DHT22;21083;50.898;4.902;2023-11-21T01:05:02;9.80;99.90
20654;DHT22;21083;50.898;4.902;2023-11-21T01:07:29;9.90;99.90
20654;DHT22;21083;50.898;4.902;2023-11-21T01:09:56;9.90;99.90
20654;DHT22;21083;50.898;4.902;2023-11-21T01:12:24;9.90;99.90
20654;DHT22;21083;50.898;4.902;2023-11-21T01:14:51;9.80;99.90
20654;DHT22;21083;50.898;4.902;2023-11-21T01:17:18;9.90;99.90
20654;DHT22;21083;50.898;4.902;2023-11-21T01:19:45;9.80;99.90
20654;DHT22;21083;50.898;4.902;2023-11-21T01:22:12;9.90;99.90
20654;DHT22;21083;50.898;4.902;2023-11-21T01:24:39;9.90;99.90
20654;DHT22;21083;50.898;4.902;2023-11-21T01:27:06;9.90;99.90
20654;DHT22;21083;50.898;4.902;2023-11-21T01:29:34;9.90;99.90
20654;DHT22;21083;50.898;4.902;2023-11-21T01:32:02;9.90;99.90
20654;DHT22;21083;50.898;4.902;2023-11-21T01:34:29;9.90;99.90
20654;DHT22;21083;50.898;4.902;2023-11-21T01:36:57;9.80;99.90
20654;DHT22;21083;50.898;4.902;2023-11-21T01:39:24;9.80;99.90
20654;DHT22;21083;50.898;4.902;2023-11-21T01:41:52;9.70;99.90
20654;DHT22;21083;50.898;4.902;2023-11-21T01:44:19;9.70;99.90
20654;DHT22;21083;50.898;4.902;2023-11-21T01:46:47;9.70;99.90
20654;DHT22;21083;50.898;4.902;2023-11-21T01:49:15;9.70;99.90
20654;DHT22;21083;50.898;4.902;2023-11-21T01:51:46;9.70;99.90
20654;DHT22;21083;50.898;4.902;2023-11-21T01:54:14;9.70;99.90
20654;DHT22;21083;50.898;4.902;2023-11-21T01:56:42;9.70;99.90
20654;DHT22;21083;50.898;4.902;2023-11-21T01:59:10;9.70;99.90
20654;DHT22;21083;50.898;4.902;2023-11-21T02:01:38;9.70;99.90
20654;DHT22;21083;50.898;4.902;2023-11-21T02:04:08;9.70;99.90
20654;DHT22;21083;50.898;4.902;2023-11-21T02:06:35;9.70;99.90
20654;DHT22;21083;50.898;4.902;2023-11-21T02:09:02;9.70;99.90
20654;DHT22;21083;50.898;4.902;2023-11-21T02:11:30;9.70;99.90
20654;DHT22;21083;50.898;4.902;2023-11-21T02:14:00;9.60;99.90
20654;DHT22;21083;50.898;4.902;2023-11-21T02:16:27;9.50;99.90
20654;DHT22;21083;50.898;4.902;2023-11-21T02:18:57;9.40;99.90
20654;DHT22;21083;50.898;4.902;2023-11-21T02:21:26;9.50;99.90
20654;DHT22;21083;50.898;4.902;2023-11-21T02:23:56;9.60;99.90
20654;DHT22;21083;50.898;4.902;2023-11-21T02:26:22;9.60;99.90
20654;DHT22;21083;50.898;4.902;2023-11-21T02:28:51;9.60;99.90
20654;DHT22;21083;50.898;4.902;2023-11-21T02:31:19;9.60;99.90
20654;DHT22;21083;50.898;4.902;2023-11-21T02:33:46;9.60;99.90
20654;DHT22;21083;50.898;4.902;2023-11-21T02:36:13;9.60;99.90
20654;DHT22;21083;50.898;4.902;2023-11-21T02:38:40;9.50;99.90
20654;DHT22;21083;50.898;4.902;2023-11-21T02:41:08;9.50;99.90
20654;DHT22;21083;50.898;4.902;2023-11-21T02:43:35;9.40;99.90
20654;DHT22;21083;50.898;4.902;2023-11-21T02:46:04;9.40;99.90
20654;DHT22;21083;50.898;4.902;2023-11-21T02:48:31;9.40;99.90
20654;DHT22;21083;50.898;4.902;2023-11-21T02:50:58;9.40;99.90
20654;DHT22;21083;50.898;4.902;2023-11-21T02:53:25;9.40;99.90
20654;DHT22;21083;50.898;4.902;2023-11-21T02:55:52;9.40;99.90
20654;DHT22;21083;50.898;4.902;2023-11-21T02:58:20;9.40;99.90
20654;DHT22;21083;50.898;4.902;2023-11-21T03:00:47;9.40;99.90
20654;DHT22;21083;50.898;4.902;2023-11-21T03:03:13;9.30;99.90
20654;DHT22;21083;50.898;4.902;2023-11-21T03:05:40;9.30;99.90
20654;DHT22;21083;50.898;4.902;2023-11-21T03:08:07;9.30;99.90
20654;DHT22;21083;50.898;4.902;2023-11-21T03:10:35;9.30;99.90
20654;DHT22;21083;50.898;4.902;2023-11-21T03:13:03;9.30;99.90
20654;DHT22;21083;50.898;4.902;2023-11-21T03:15:31;9.30;99.90
20654;DHT22;21083;50.898;4.902;2023-11-21T03:17:58;9.40;99.90
20654;DHT22;21083;50.898;4.902;2023-11-21T03:20:25;9.40;99.90
20654;DHT22;21083;50.898;4.902;2023-11-21T03:22:52;9.40;99.90
20654;DHT22;21083;50.898;4.902;2023-11-21T03:25:19;9.40;99.90
20654;DHT22;21083;50.898;4.902;2023-11-21T03:27:46;9.50;99.90
20654;DHT22;21083;50.898;4.902;2023-11-21T03:30:13;9.40;99.90
20654;DHT22;21083;50.898;4.902;2023-11-21T03:32:41;9.50;99.90
20654;DHT22;21083;50.898;4.902;2023-11-21T03:35:08;9.40;99.90
20654;DHT22;21083;50.898;4.902;2023-11-21T03:37:35;9.40;99.90
20654;DHT22;21083;50.898;4.902;2023-11-21T03:40:05;9.40;99.90
20654;DHT22;21083;50.898;4.902;2023-11-21T03:42:34;9.50;99.90
20654;DHT22;21083;50.898;4.902;2023-11-21T03:45:01;9.40;99.90
20654;DHT22;21083;50.898;4.902;2023-11-21T03:47:28;9.40;99.90
20654;DHT22;21083;50.898;4.902;2023-11-21T03:49:57;9.40;99.90
20654;DHT22;21083;50.898;4.902;2023-11-21T03:52:24;9.40;99.90
20654;DHT22;21083;50.898;4.902;2023-11-21T03:54:51;9.40;99.90
20654;DHT22;21083;50.898;4.902;2023-11-21T03:57:18;9.50;99.90
20654;DHT22;21083;50.898;4.902;2023-11-21T03:59:44;9.50;99.90
20654;DHT22;21083;50.898;4.902;2023-11-21T04:02:11;9.50;99.90
20654;DHT22;21083;50.898;4.902;2023-11-21T04:04:38;9.60;99.90
20654;DHT22;21083;50.898;4.902;2023-11-21T04:07:07;9.60;99.90
20654;DHT22;21083;50.898;4.902;2023-11-21T04:09:34;9.50;99.90
20654;DHT22;21083;50.898;4.902;2023-11-21T04:12:02;9.50;99.90
20654;DHT22;21083;50.898;4.902;2023-11-21T04:14:28;9.60;99.90
20654;DHT22;21083;50.898;4.902;2023-11-21T04:16:55;9.60;99.90
20654;DHT22;21083;50.898;4.902;2023-11-21T04:19:22;9.60;99.90
20654;DHT22;21083;50.898;4.902;2023-11-21T04:21:49;9.60;99.90
20654;DHT22;21083;50.898;4.902;2023-11-21T04:24:18;9.60;99.90
20654;DHT22;21083;50.898;4.902;2023-11-21T04:26:45;9.70;99.90
20654;DHT22;21083;50.898;4.902;2023-11-21T04:29:12;9.70;99.90
20654;DHT22;21083;50.898;4.902;2023-11-21T04:31:39;9.70;99.90
20654;DHT22;21083;50.898;4.902;2023-11-21T04:34:07;9.70;99.90
20654;DHT22;21083;50.898;4.902;2023-11-21T04:36:33;9.70;99.90
20654;DHT22;21083;50.898;4.902;2023-11-21T04:39:00;9.70;99.90
20654;DHT22;21083;50.898;4.902;2023-11-21T04:41:29;9.70;99.90
20654;DHT22;21083;50.898;4.902;2023-11-21T04:43:57;9.70;99.90
20654;DHT22;21083;50.898;4.902;2023-11-21T04:46:24;9.70;99.90
20654;DHT22;21083;50.898;4.902;2023-11-21T04:48:51;9.80;99.90
20654;DHT22;21083;50.898;4.902;2023-11-21T04:51:17;9.80;99.90
20654;DHT22;21083;50.898;4.902;2023-11-21T04:53:44;9.80;99.90
20654;DHT22;21083;50.898;4.902;2023-11-21T04:56:11;9.80;99.90
20654;DHT22;21083;50.898;4.902;2023-11-21T04:58:39;9.70;99.90
20654;DHT22;21083;50.898;4.902;2023-11-21T05:01:07;9.80;99.90
20654;DHT22;21083;50.898;4.902;2023-11-21T05:03:34;9.80;99.90
20654;DHT22;21083;50.898;4.902;2023-11-21T05:06:01;9.80;99.90
20654;DHT22;21083;50.898;4.902;2023-11-21T05:08:27;9.80;99.90
20654;DHT22;21083;50.898;4.902;2023-11-21T05:10:54;9.80;99.90
20654;DHT22;21083;50.898;4.902;2023-11-21T05:13:21;9.90;99.90
20654;DHT22;21083;50.898;4.902;2023-11-21T05:15:54;9.90;99.90
20654;DHT22;21083;50.898;4.902;2023-11-21T05:18:21;9.90;99.90
20654;DHT22;21083;50.898;4.902;2023-11-21T05:20:48;9.80;99.90
20654;DHT22;21083;50.898;4.902;2023-11-21T05:23:16;9.90;99.90
20654;DHT22;21083;50.898;4.902;2023-11-21T05:25:42;9.90;99.90
20654;DHT22;21083;50.898;4.902;2023-11-21T05:28:09;9.80;99.90
20654;DHT22;21083;50.898;4.902;2023-11-21T05:30:36;9.90;99.90
20654;DHT22;21083;50.898;4.902;2023-11-21T05:33:06;9.90;99.90
20654;DHT22;21083;50.898;4.902;2023-11-21T05:35:32;9.90;99.90
20654;DHT22;21083;50.898;4.902;2023-11-21T05:37:59;9.90;99.90
20654;DHT22;21083;50.898;4.902;2023-11-21T05:40:26;9.90;99.90
20654;DHT22;21083;50.898;4.902;2023-11-21T05:42:55;9.90;99.90
20654;DHT22;21083;50.898;4.902;2023-11-21T05:45:22;9.90;99.90
20654;DHT22;21083;50.898;4.902;2023-11-21T05:47:49;9.90;99.90
20654;DHT22;21083;50.898;4.902;2023-11-21T05:50:17;9.90;99.90
20654;DHT22;21083;50.898;4.902;2023-11-21T05:52:45;9.90;99.90
20654;DHT22;21083;50.898;4.902;2023-11-21T05:55:13;10.00;99.90
20654;DHT22;21083;50.898;4.902;2023-11-21T05:57:41;10.00;99.90
20654;DHT22;21083;50.898;4.902;2023-11-21T06:00:10;10.00;99.90
20654;DHT22;21083;50.898;4.902;2023-11-21T06:02:41;10.00;99.90
20654;DHT22;21083;50.898;4.902;2023-11-21T06:05:08;9.90;99.90
20654;DHT22;21083;50.898;4.902;2023-11-21T06:07:37;9.90;99.90
20654;DHT22;21083;50.898;4.902;2023-11-21T06:10:07;10.00;99.90
20654;DHT22;21083;50.898;4.902;2023-11-21T06:12:36;10.00;99.90
20654;DHT22;21083;50.898;4.902;2023-11-21T06:15:04;10.00;99.90
20654;DHT22;21083;50.898;4.902;2023-11-21T06:17:33;10.00;99.90
20654;DHT22;21083;50.898;4.902;2023-11-21T06:20:01;10.00;99.90
20654;DHT22;21083;50.898;4.902;2023-11-21T06:22:34;10.00;99.90
20654;DHT22;21083;50.898;4.902;2023-11-21T06:25:03;10.00;99.90
20654;DHT22;21083;50.898;4.902;2023-11-21T06:27:31;10.10;99.90
20654;DHT22;21083;50.898;4.902;2023-11-21T06:29:58;10.00;99.90
20654;DHT22;21083;50.898;4.902;2023-11-21T06:32:25;9.90;99.90
20654;DHT22;21083;50.898;4.902;2023-11-21T06:34:55;10.00;99.90
20654;DHT22;21083;50.898;4.902;2023-11-21T06:37:25;9.90;99.90
20654;DHT22;21083;50.898;4.902;2023-11-21T06:39:52;9.90;99.90
20654;DHT22;21083;50.898;4.902;2023-11-21T06:42:20;9.90;99.90
20654;DHT22;21083;50.898;4.902;2023-11-21T06:44:48;9.90;99.90
20654;DHT22;21083;50.898;4.902;2023-11-21T06:47:17;9.90;99.90
20654;DHT22;21083;50.898;4.902;2023-11-21T06:49:46;10.00;99.90
20654;DHT22;21083;50.898;4.902;2023-11-21T06:52:14;9.90;99.90
20654;DHT22;21083;50.898;4.902;2023-11-21T06:54:41;10.00;99.90
20654;DHT22;21083;50.898;4.902;2023-11-21T06:57:08;10.00;99.90
20654;DHT22;21083;50.898;4.902;2023-11-21T06:59:36;9.90;99.90
20654;DHT22;21083;50.898;4.902;2023-11-21T07:02:03;9.90;99.90
20654;DHT22;21083;50.898;4.902;2023-11-21T07:04:32;10.00;99.90
20654;DHT22;21083;50.898;4.902;2023-11-21T07:06:59;10.00;99.90
20654;DHT22;21083;50.898;4.902;2023-11-21T07:09:26;10.00;99.90
20654;DHT22;21083;50.898;4.902;2023-11-21T07:11:53;10.10;99.90
20654;DHT22;21083;50.898;4.902;2023-11-21T07:14:20;10.00;99.90
20654;DHT22;21083;50.898;4.902;2023-11-21T07:16:49;10.10;99.90
20654;DHT22;21083;50.898;4.902;2023-11-21T07:19:16;10.10;99.90
20654;DHT22;21083;50.898;4.902;2023-11-21T07:21:43;10.10;99.90
20654;DHT22;21083;50.898;4.902;2023-11-21T07:24:10;10.10;99.90
20654;DHT22;21083;50.898;4.902;2023-11-21T07:26:37;10.20;99.90
20654;DHT22;21083;50.898;4.902;2023-11-21T07:29:04;10.20;99.90
20654;DHT22;21083;50.898;4.902;2023-11-21T07:31:31;10.20;99.90
20654;DHT22;21083;50.898;4.902;2023-11-21T07:34:01;10.20;99.90
20654;DHT22;21083;50.898;4.902;2023-11-21T07:36:28;10.30;99.90
20654;DHT22;21083;50.898;4.902;2023-11-21T07:38:55;10.30;99.90
20654;DHT22;21083;50.898;4.902;2023-11-21T07:41:21;10.30;99.90
20654;DHT22;21083;50.898;4.902;2023-11-21T07:43:48;10.30;99.90
20654;DHT22;21083;50.898;4.902;2023-11-21T07:46:15;10.30;99.90
20654;DHT22;21083;50.898;4.902;2023-11-21T07:48:42;10.30;99.90
20654;DHT22;21083;50.898;4.902;2023-11-21T07:51:13;10.30;99.90
20654;DHT22;21083;50.898;4.902;2023-11-21T07:53:40;10.30;99.90
20654;DHT22;21083;50.898;4.902;2023-11-21T07:56:08;10.30;99.90
20654;DHT22;21083;50.898;4.902;2023-11-21T07:58:35;10.30;99.90
20654;DHT22;21083;50.898;4.902;2023-11-21T08:01:02;10.50;99.90
20654;DHT22;21083;50.898;4.902;2023-11-21T08:03:29;10.40;99.90
20654;DHT22;21083;50.898;4.902;2023-11-21T08:05:57;10.40;99.90
20654;DHT22;21083;50.898;4.902;2023-11-21T08:08:25;10.40;99.90
20654;DHT22;21083;50.898;4.902;2023-11-21T08:10:53;10.40;99.90
20654;DHT22;21083;50.898;4.902;2023-11-21T08:13:23;10.50;99.90
20654;DHT22;21083;50.898;4.902;2023-11-21T08:15:50;10.40;99.90
20654;DHT22;21083;50.898;4.902;2023-11-21T08:18:17;10.40;99.90
20654;DHT22;21083;50.898;4.902;2023-11-21T08:20:44;10.40;99.90
20654;DHT22;21083;50.898;4.902;2023-11-21T08:23:14;10.40;99.90
20654;DHT22;21083;50.898;4.902;2023-11-21T08:25:43;10.40;99.90
20654;DHT22;21083;50.898;4.902;2023-11-21T08:28:10;10.40;99.90
20654;DHT22;21083;50.898;4.902;2023-11-21T08:30:37;10.50;99.90
20654;DHT22;21083;50.898;4.902;2023-11-21T08:33:05;10.50;99.90
20654;DHT22;21083;50.898;4.902;2023-11-21T08:35:32;10.50;99.90
20654;DHT22;21083;50.898;4.902;2023-11-21T08:37:59;10.60;99.90
20654;DHT22;21083;50.898;4.902;2023-11-21T08:40:26;10.70;99.90
20654;DHT22;21083;50.898;4.902;2023-11-21T08:42:55;10.80;99.90
20654;DHT22;21083;50.898;4.902;2023-11-21T08:45:24;10.80;99.90
20654;DHT22;21083;50.898;4.902;2023-11-21T08:47:52;10.80;99.90
20654;DHT22;21083;50.898;4.902;2023-11-21T08:50:19;11.00;99.90
20654;DHT22;21083;50.898;4.902;2023-11-21T08:52:47;11.10;99.90
20654;DHT22;21083;50.898;4.902;2023-11-21T08:55:14;10.90;99.90
20654;DHT22;21083;50.898;4.902;2023-11-21T08:57:43;10.90;99.90
20654;DHT22;21083;50.898;4.902;2023-11-21T09:00:13;10.90;99.90
20654;DHT22;21083;50.898;4.902;2023-11-21T09:02:43;10.90;99.90
20654;DHT22;21083;50.898;4.902;2023-11-21T09:05:10;11.00;99.90
20654;DHT22;21083;50.898;4.902;2023-11-21T09:07:38;11.00;99.90
20654;DHT22;21083;50.898;4.902;2023-11-21T09:10:07;11.00;99.90
20654;DHT22;21083;50.898;4.902;2023-11-21T09:12:34;10.90;99.90
20654;DHT22;21083;50.898;4.902;2023-11-21T09:15:03;11.00;99.90
20654;DHT22;21083;50.898;4.902;2023-11-21T09:17:33;11.10;99.90
20654;DHT22;21083;50.898;4.902;2023-11-21T09:20:01;11.20;99.90
20654;DHT22;21083;50.898;4.902;2023-11-21T09:22:29;11.20;99.90
20654;DHT22;21083;50.898;4.902;2023-11-21T09:24:57;11.20;99.90
20654;DHT22;21083;50.898;4.902;2023-11-21T09:27:24;11.10;99.90
20654;DHT22;21083;50.898;4.902;2023-11-21T09:29:51;11.20;99.90
20654;DHT22;21083;50.898;4.902;2023-11-21T09:32:20;11.30;99.90
20654;DHT22;21083;50.898;4.902;2023-11-21T09:34:48;11.40;99.90
20654;DHT22;21083;50.898;4.902;2023-11-21T09:37:15;11.40;99.90
20654;DHT22;21083;50.898;4.902;2023-11-21T09:39:42;11.40;99.90
20654;DHT22;21083;50.898;4.902;2023-11-21T09:42:12;11.30;99.90
20654;DHT22;21083;50.898;4.902;2023-11-21T09:44:46;11.40;99.90
20654;DHT22;21083;50.898;4.902;2023-11-21T09:47:15;11.50;99.90
20654;DHT22;21083;50.898;4.902;2023-11-21T09:49:46;11.50;99.90
20654;DHT22;21083;50.898;4.902;2023-11-21T09:52:22;11.50;99.90
20654;DHT22;21083;50.898;4.902;2023-11-21T09:54:52;11.40;99.90
20654;DHT22;21083;50.898;4.902;2023-11-21T09:57:20;11.40;99.90
20654;DHT22;21083;50.898;4.902;2023-11-21T09:59:51;11.40;99.90
20654;DHT22;21083;50.898;4.902;2023-11-21T10:02:22;11.30;99.90
20654;DHT22;21083;50.898;4.902;2023-11-21T10:04:51;11.40;99.90
20654;DHT22;21083;50.898;4.902;2023-11-21T10:07:21;11.40;99.90
20654;DHT22;21083;50.898;4.902;2023-11-21T10:09:51;11.50;99.90
20654;DHT22;21083;50.898;4.902;2023-11-21T10:12:20;11.50;99.90
20654;DHT22;21083;50.898;4.902;2023-11-21T10:14:48;11.60;99.90
20654;DHT22;21083;50.898;4.902;2023-11-21T10:17:18;11.60;99.90
20654;DHT22;21083;50.898;4.902;2023-11-21T10:19:46;11.60;99.90
20654;DHT22;21083;50.898;4.902;2023-11-21T10:22:14;11.50;99.90
20654;DHT22;21083;50.898;4.902;2023-11-21T10:24:43;11.50;99.90
20654;DHT22;21083;50.898;4.902;2023-11-21T10:27:10;11.60;99.90
20654;DHT22;21083;50.898;4.902;2023-11-21T10:29:39;11.60;99.90
20654;DHT22;21083;50.898;4.902;2023-11-21T10:32:07;11.60;99.90
20654;DHT22;21083;50.898;4.902;2023-11-21T10:34:35;11.60;99.90
20654;DHT22;21083;50.898;4.902;2023-11-21T10:37:11;11.50;99.90
20654;DHT22;21083;50.898;4.902;2023-11-21T10:39:39;11.60;99.90
20654;DHT22;21083;50.898;4.902;2023-11-21T10:42:09;11.60;99.90
20654;DHT22;21083;50.898;4.902;2023-11-21T10:44:36;11.70;99.90
20654;DHT22;21083;50.898;4.902;2023-11-21T10:47:03;11.70;99.90
20654;DHT22;21083;50.898;4.902;2023-11-21T10:49:31;11.80;99.90
20654;DHT22;21083;50.898;4.902;2023-11-21T10:51:57;11.70;99.90
20654;DHT22;21083;50.898;4.902;2023-11-21T10:54:25;11.80;99.90
20654;DHT22;21083;50.898;4.902;2023-11-21T10:56:57;11.70;99.90
20654;DHT22;21083;50.898;4.902;2023-11-21T10:59:27;11.80;99.90
20654;DHT22;21083;50.898;4.902;2023-11-21T11:01:57;11.90;99.90
20654;DHT22;21083;50.898;4.902;2023-11-21T11:04:27;11.80;99.90
20654;DHT22;21083;50.898;4.902;2023-11-21T11:06:56;11.70;99.90
20654;DHT22;21083;50.898;4.902;2023-11-21T11:09:23;11.60;99.90
20654;DHT22;21083;50.898;4.902;2023-11-21T11:11:51;11.80;99.90
20654;DHT22;21083;50.898;4.902;2023-11-21T11:14:20;11.90;99.90
20654;DHT22;21083;50.898;4.902;2023-11-21T11:16:53;11.80;99.90
20654;DHT22;21083;50.898;4.902;2023-11-21T11:19:21;11.90;99.90
20654;DHT22;21083;50.898;4.902;2023-11-21T11:21:56;11.90;99.90
20654;DHT22;21083;50.898;4.902;2023-11-21T11:24:57;12.10;99.90
20654;DHT22;21083;50.898;4.902;2023-11-21T11:27:37;12.10;99.90
20654;DHT22;21083;50.898;4.902;2023-11-21T11:30:13;12.10;99.90
20654;DHT22;21083;50.898;4.902;2023-11-21T11:32:52;12.00;99.90
20654;DHT22;21083;50.898;4.902;2023-11-21T11:35:26;12.00;99.90
20654;DHT22;21083;50.898;4.902;2023-11-21T11:37:56;12.00;99.90
20654;DHT22;21083;50.898;4.902;2023-11-21T11:40:26;12.00;99.90
20654;DHT22;21083;50.898;4.902;2023-11-21T11:43:06;12.00;99.90
20654;DHT22;21083;50.898;4.902;2023-11-21T11:45:34;12.10;99.90
20654;DHT22;21083;50.898;4.902;2023-11-21T11:48:05;12.00;99.90
20654;DHT22;21083;50.898;4.902;2023-11-21T11:50:32;12.00;99.90
20654;DHT22;21083;50.898;4.902;2023-11-21T11:53:12;12.00;99.90
20654;DHT22;21083;50.898;4.902;2023-11-21T11:55:39;11.90;99.90
20654;DHT22;21083;50.898;4.902;2023-11-21T11:58:07;11.90;99.90
20654;DHT22;21083;50.898;4.902;2023-11-21T12:00:35;11.90;99.90
20654;DHT22;21083;50.898;4.902;2023-11-21T12:03:07;11.90;99.90
20654;DHT22;21083;50.898;4.902;2023-11-21T12:05:35;12.00;99.90
20654;DHT22;21083;50.898;4.902;2023-11-21T12:08:05;11.90;99.90
20654;DHT22;21083;50.898;4.902;2023-11-21T12:10:34;11.90;99.90
20654;DHT22;21083;50.898;4.902;2023-11-21T12:13:02;11.90;99.90
20654;DHT22;21083;50.898;4.902;2023-11-21T12:15:30;12.00;99.90
20654;DHT22;21083;50.898;4.902;2023-11-21T12:17:57;12.00;99.90
20654;DHT22;21083;50.898;4.902;2023-11-21T12:20:27;12.10;99.90
20654;DHT22;21083;50.898;4.902;2023-11-21T12:22:54;12.10;99.90
20654;DHT22;21083;50.898;4.902;2023-11-21T12:25:23;12.10;99.90
20654;DHT22;21083;50.898;4.902;2023-11-21T12:27:52;12.20;99.90
20654;DHT22;21083;50.898;4.902;2023-11-21T12:30:22;12.30;99.90
20654;DHT22;21083;50.898;4.902;2023-11-21T12:32:50;12.40;99.90
20654;DHT22;21083;50.898;4.902;2023-11-21T12:35:18;12.50;99.90
20654;DHT22;21083;50.898;4.902;2023-11-21T12:37:48;12.50;99.90
20654;DHT22;21083;50.898;4.902;2023-11-21T12:40:16;12.60;99.90
20654;DHT22;21083;50.898;4.902;2023-11-21T12:42:44;12.70;99.90
20654;DHT22;21083;50.898;4.902;2023-11-21T12:45:20;12.80;99.90
20654;DHT22;21083;50.898;4.902;2023-11-21T12:47:48;12.80;99.90
20654;DHT22;21083;50.898;4.902;2023-11-21T12:50:18;12.90;99.90
20654;DHT22;21083;50.898;4.902;2023-11-21T12:52:50;13.00;99.90
20654;DHT22;21083;50.898;4.902;2023-11-21T12:55:18;13.20;99.90
20654;DHT22;21083;50.898;4.902;2023-11-21T12:57:48;13.30;99.90
20654;DHT22;21083;50.898;4.902;2023-11-21T13:00:18;13.60;99.90
20654;DHT22;21083;50.898;4.902;2023-11-21T13:02:53;13.90;99.90
20654;DHT22;21083;50.898;4.902;2023-11-21T13:05:27;14.20;99.90
20654;DHT22;21083;50.898;4.902;2023-11-21T13:07:56;14.20;99.90
20654;DHT22;21083;50.898;4.902;2023-11-21T13:10:25;14.30;99.90
20654;DHT22;21083;50.898;4.902;2023-11-21T13:12:55;14.20;99.90
20654;DHT22;21083;50.898;4.902;2023-11-21T13:15:23;14.10;99.90
20654;DHT22;21083;50.898;4.902;2023-11-21T13:17:50;13.90;99.90
20654;DHT22;21083;50.898;4.902;2023-11-21T13:20:19;13.70;99.90
20654;DHT22;21083;50.898;4.902;2023-11-21T13:22:47;13.60;99.90
20654;DHT22;21083;50.898;4.902;2023-11-21T13:25:17;13.50;99.90
20654;DHT22;21083;50.898;4.902;2023-11-21T13:27:45;13.40;99.90
20654;DHT22;21083;50.898;4.902;2023-11-21T13:30:13;13.40;99.90
20654;DHT22;21083;50.898;4.902;2023-11-21T13:32:48;13.30;99.90
20654;DHT22;21083;50.898;4.902;2023-11-21T13:35:17;13.20;99.90
20654;DHT22;21083;50.898;4.902;2023-11-21T13:37:48;13.30;99.90
20654;DHT22;21083;50.898;4.902;2023-11-21T13:40:22;13.20;99.90
20654;DHT22;21083;50.898;4.902;2023-11-21T13:42:52;13.20;99.90
20654;DHT22;21083;50.898;4.902;2023-11-21T13:45:25;13.20;99.90
20654;DHT22;21083;50.898;4.902;2023-11-21T13:47:53;13.10;99.90
20654;DHT22;21083;50.898;4.902;2023-11-21T13:50:23;13.10;99.90
20654;DHT22;21083;50.898;4.902;2023-11-21T13:52:54;13.10;99.90
20654;DHT22;21083;50.898;4.902;2023-11-21T13:55:23;13.10;99.90
20654;DHT22;21083;50.898;4.902;2023-11-21T13:57:51;13.10;99.90
20654;DHT22;21083;50.898;4.902;2023-11-21T14:00:18;13.00;99.90
20654;DHT22;21083;50.898;4.902;2023-11-21T14:03:03;12.90;99.90
20654;DHT22;21083;50.898;4.902;2023-11-21T14:05:34;12.90;99.90
20654;DHT22;21083;50.898;4.902;2023-11-21T14:08:01;12.90;99.90
20654;DHT22;21083;50.898;4.902;2023-11-21T14:10:31;12.90;99.90
20654;DHT22;21083;50.898;4.902;2023-11-21T14:13:06;12.80;99.90
20654;DHT22;21083;50.898;4.902;2023-11-21T14:15:33;12.80;99.90
20654;DHT22;21083;50.898;4.902;2023-11-21T14:18:04;12.80;99.90
20654;DHT22;21083;50.898;4.902;2023-11-21T14:20:33;12.80;99.90
20654;DHT22;21083;50.898;4.902;2023-11-21T14:23:02;12.80;99.90
20654;DHT22;21083;50.898;4.902;2023-11-21T14:25:29;12.90;99.90
20654;DHT22;21083;50.898;4.902;2023-11-21T14:27:59;12.90;99.90
20654;DHT22;21083;50.898;4.902;2023-11-21T14:30:26;12.90;99.90
20654;DHT22;21083;50.898;4.902;2023-11-21T14:32:54;12.90;99.90
20654;DHT22;21083;50.898;4.902;2023-11-21T14:35:21;12.90;99.90
20654;DHT22;21083;50.898;4.902;2023-11-21T14:37:48;12.90;99.90
20654;DHT22;21083;50.898;4.902;2023-11-21T14:40:15;12.90;99.90
20654;DHT22;21083;50.898;4.902;2023-11-21T14:42:43;12.90;99.90
20654;DHT22;21083;50.898;4.902;2023-11-21T14:45:14;12.90;99.90
20654;DHT22;21083;50.898;4.902;2023-11-21T14:47:45;12.90;99.90
20654;DHT22;21083;50.898;4.902;2023-11-21T14:50:20;12.90;99.90
20654;DHT22;21083;50.898;4.902;2023-11-21T14:53:13;12.80;99.90
20654;DHT22;21083;50.898;4.902;2023-11-21T14:55:40;12.80;99.90
20654;DHT22;21083;50.898;4.902;2023-11-21T14:58:22;12.80;99.90
20654;DHT22;21083;50.898;4.902;2023-11-21T15:00:55;12.70;99.90
20654;DHT22;21083;50.898;4.902;2023-11-21T15:03:25;12.70;99.90
20654;DHT22;21083;50.898;4.902;2023-11-21T15:06:09;12.70;99.90
20654;DHT22;21083;50.898;4.902;2023-11-21T15:08:48;12.60;99.90
20654;DHT22;21083;50.898;4.902;2023-11-21T15:11:19;12.60;99.90
20654;DHT22;21083;50.898;4.902;2023-11-21T15:13:47;12.60;99.90
20654;DHT22;21083;50.898;4.902;2023-11-21T15:16:17;12.60;99.90
20654;DHT22;21083;50.898;4.902;2023-11-21T15:18:44;12.60;99.90
20654;DHT22;21083;50.898;4.902;2023-11-21T15:21:11;12.60;99.90
20654;DHT22;21083;50.898;4.902;2023-11-21T15:23:38;12.50;99.90
20654;DHT22;21083;50.898;4.902;2023-11-21T15:26:07;12.50;99.90
20654;DHT22;21083;50.898;4.902;2023-11-21T15:28:34;12.50;99.90
20654;DHT22;21083;50.898;4.902;2023-11-21T15:31:01;12.50;99.90
20654;DHT22;21083;50.898;4.902;2023-11-21T15:33:31;12.50;99.90
20654;DHT22;21083;50.898;4.902;2023-11-21T15:35:58;12.50;99.90
20654;DHT22;21083;50.898;4.902;2023-11-21T15:38:24;12.50;99.90
20654;DHT22;21083;50.898;4.902;2023-11-21T15:40:51;12.40;99.90
20654;DHT22;21083;50.898;4.902;2023-11-21T15:43:20;12.40;99.90
20654;DHT22;21083;50.898;4.902;2023-11-21T15:45:47;12.30;99.90